Maran Pythia — SVAQ5 — position and weather

sailwx.info

Track history (hours):
 
Tides and Currents Weather Stations Pressure Air Temp Water Temp Dewpoint Dewpoint Depression Visibility Wind Speed Wind Dir Waves Ship Positions

Maran Pythia

Last reported at 2014-Sep-12 11:09 UTC. Time now 2014-Sep-17 19:38 UTC.
Position N 41°26' E 029°14'.

Length 274 m; draft 9.3 m.

Type: Tanker. MMSI: 240893000.

Date/timePositionNaut miles runAvg speedWind from/ knotsBaromVisibWave heightAir tempDewpointWater temp
2014-Sep-12 11:09N 41°26' E 029°14'5 8.3
2014-Sep-12 10:33N 41°21' E 029°13'29 8.6
2014-Sep-12 07:08N 40°54' E 028°57'4 6.4
2014-Sep-12 06:32N 40°51' E 028°56'2 2.0
2014-Sep-12 05:33N 40°50' E 028°53'9 9.4
2014-Sep-12 04:33N 40°49' E 028°41'9 8.2
2014-Sep-12 03:29N 40°47' E 028°30'125 8.4
2014-Sep-11 12:32N 39°57' E 025°59'9 2.2
2014-Sep-11 08:19N 39°49' E 025°55'0 0.0
2014-Sep-11 07:19N 39°49' E 025°55'0 0.1
2014-Sep-11 06:22N 39°49' E 025°55'0 0.0
2014-Sep-11 05:31N 39°49' E 025°55'0 0.0
2014-Sep-11 04:31N 39°49' E 025°55'0 0.0
2014-Sep-11 03:22N 39°49' E 025°55'0 0.0
2014-Sep-11 02:31N 39°49' E 025°55'0 0.1
2014-Sep-11 01:25N 39°49' E 025°55'0 0.0
2014-Sep-11 00:31N 39°49' E 025°55'0 0.0
2014-Sep-10 23:28N 39°49' E 025°55'0 0.0
2014-Sep-10 21:31N 39°49' E 025°55'0 0.0
2014-Sep-10 17:22N 39°49' E 025°55'0 0.0
2014-Sep-10 13:28N 39°49' E 025°55'11 1.8
2014-Sep-10 07:07N 39°40' E 025°45'5 8.8
2014-Sep-10 06:31N 39°35' E 025°43'20 8.8
2014-Sep-10 04:18N 39°18' E 025°30'9 9.1
2014-Sep-10 03:16N 39°10' E 025°24'6 9.1
2014-Sep-10 02:34N 39°04' E 025°21'9 9.0
2014-Sep-10 01:33N 38°56' E 025°15'74 8.8
2014-Sep-09 17:14N 37°51' E 024°30'7 9.7
2014-Sep-09 16:31N 37°48' E 024°23'18 9.0
2014-Sep-09 14:34N 37°35' E 024°07'2210.5
2014-Sep-09 12:30N 37°42' E 023°41'1011.1
2014-Sep-09 11:33N 37°51' E 023°34'3 2.7
2014-Sep-09 10:33N 37°53' E 023°32'0 0.1
2014-Sep-09 09:33N 37°53' E 023°31'0 0.1
2014-Sep-09 08:33N 37°53' E 023°31'0 0.0
2014-Sep-09 07:33N 37°53' E 023°31'0 0.0
2014-Sep-09 06:33N 37°53' E 023°31'0 0.0
2014-Sep-09 05:33N 37°53' E 023°31'0 0.0
2014-Sep-09 04:33N 37°53' E 023°31'0 0.0
2014-Sep-09 03:33N 37°53' E 023°31'0 0.0
2014-Sep-09 02:33N 37°53' E 023°31'0 0.0
2014-Sep-09 01:33N 37°53' E 023°31'0 0.0
2014-Sep-09 00:33N 37°53' E 023°31'0 0.0
2014-Sep-08 23:33N 37°53' E 023°31'0 0.0
2014-Sep-08 22:33N 37°53' E 023°31'0 0.0
2014-Sep-08 21:33N 37°53' E 023°31'0 0.0
2014-Sep-08 20:33N 37°53' E 023°31'0 0.1
2014-Sep-08 19:33N 37°53' E 023°31'0 0.1
2014-Sep-08 18:33N 37°53' E 023°31'0 0.1
2014-Sep-08 17:33N 37°53' E 023°31'0 0.0
2014-Sep-08 16:33N 37°53' E 023°31'0 0.0
2014-Sep-08 15:33N 37°53' E 023°31'0 0.0
2014-Sep-08 14:33N 37°53' E 023°31'0 0.2
2014-Sep-08 13:33N 37°53' E 023°31'0 0.1
2014-Sep-08 12:33N 37°53' E 023°32'0 0.1
2014-Sep-08 11:33N 37°53' E 023°31'0 0.1
2014-Sep-08 10:33N 37°53' E 023°32'0 0.1
2014-Sep-08 09:33N 37°53' E 023°32'0 0.2
2014-Sep-08 08:33N 37°53' E 023°31'0 0.1
2014-Sep-08 07:33N 37°53' E 023°31'0 0.0
2014-Sep-08 06:33N 37°53' E 023°32'0 0.0
2014-Sep-08 05:33N 37°53' E 023°31'0 0.0
2014-Sep-08 04:33N 37°53' E 023°31'1 1.4
2014-Sep-08 03:34N 37°52' E 023°33'6 5.8
2014-Sep-08 02:33N 37°50' E 023°40'9 8.8
2014-Sep-08 01:33N 37°42' E 023°45'9 8.5
2014-Sep-08 00:33N 37°33' E 023°46'47 9.1
2014-Sep-07 19:19N 36°46' E 023°42'16 9.0
2014-Sep-07 17:33N 36°30' E 023°41'  
2014-Sep-05 13:17N 36°19' E 015°07'710.1
2014-Sep-05 12:34N 36°19' E 014°58'1010.1
2014-Sep-05 11:34N 36°21' E 014°46'1010.0
2014-Sep-05 10:34N 36°24' E 014°34'10 9.9
2014-Sep-05 09:34N 36°27' E 014°22'10 9.8
2014-Sep-05 08:34N 36°29' E 014°11'10 9.9
2014-Sep-05 07:34N 36°32' E 013°59'10 9.9
2014-Sep-05 06:34N 36°35' E 013°47'10 9.9
2014-Sep-05 05:33N 36°38' E 013°35'10 9.8
2014-Sep-05 04:34N 36°40' E 013°23'12 9.6
2014-Sep-05 03:18N 36°44' E 013°09'8 9.3
2014-Sep-05 02:28N 36°46' E 012°60'11 9.2
2014-Sep-05 01:18N 36°49' E 012°47'7 9.4
2014-Sep-05 00:33N 36°51' E 012°38'9 9.6
2014-Sep-04 23:33N 36°54' E 012°27'12 9.7
2014-Sep-04 22:18N 36°57' E 012°12'21 9.6
2014-Sep-04 20:08N 37°05' E 011°48'7 9.6
2014-Sep-04 19:27N 37°08' E 011°41'9 9.6
2014-Sep-04 18:30N 37°12' E 011°31'9 9.5
2014-Sep-04 17:33N 37°17' E 011°21'11 9.5
2014-Sep-04 16:23N 37°22' E 011°09'8 9.4
2014-Sep-04 15:34N 37°26' E 010°60'9 9.4
2014-Sep-04 14:34N 37°28' E 010°48'10 9.6
2014-Sep-04 13:34N 37°30' E 010°37'1110.1
2014-Sep-04 12:26N 37°33' E 010°23'910.1
2014-Sep-04 11:33N 37°34' E 010°12'1010.2
2014-Sep-04 10:33N 37°34' E 009°59'10 9.9
2014-Sep-04 09:33N 37°34' E 009°46'1111.3
2014-Sep-04 08:32N 37°35' E 009°32'1311.9
2014-Sep-04 07:26N 37°36' E 009°15'1111.9
2014-Sep-04 06:29N 37°36' E 009°01'1111.8
2014-Sep-04 05:34N 37°37' E 008°47'1211.6
2014-Sep-04 04:32N 37°36' E 008°32'1111.3
2014-Sep-04 03:33N 37°35' E 008°19'1111.3
2014-Sep-04 02:33N 37°34' E 008°04'1211.7
2014-Sep-04 01:33N 37°33' E 007°50'9711.5
2014-Sep-03 17:07N 37°20' E 005°48'7 8.9
2014-Sep-03 16:22N 37°20' E 005°40'3010.6
2014-Sep-03 13:32N 37°16' E 005°02'1110.9
2014-Sep-03 12:29N 37°15' E 004°48'5110.2
2014-Sep-03 07:28N 37°07' E 003°45'8 8.4
2014-Sep-03 06:33N 37°06' E 003°35'9 8.5
2014-Sep-03 05:33N 37°04' E 003°25'26 8.4
2014-Sep-03 02:24N 36°59' E 002°52'8 9.5
2014-Sep-03 01:32N 36°57' E 002°42'10 9.7
2014-Sep-03 00:31N 36°55' E 002°30'9 9.4
2014-Sep-02 23:33N 36°53' E 002°19'9 9.4
2014-Sep-02 22:33N 36°51' E 002°07'10 9.4
2014-Sep-02 21:32N 36°49' E 001°56'10 9.7
2014-Sep-02 20:33N 36°47' E 001°44'10 9.8
2014-Sep-02 19:33N 36°45' E 001°32'10 9.8
2014-Sep-02 18:33N 36°43' E 001°20'10 9.8
2014-Sep-02 17:33N 36°41' E 001°08'10 9.5
2014-Sep-02 16:33N 36°39' E 000°57'10 9.6
2014-Sep-02 15:33N 36°37' E 000°45'10 9.8
2014-Sep-02 14:33N 36°35' E 000°33'1110.7
2014-Sep-02 13:33N 36°33' E 000°20'1515.1
2014-Sep-02 12:33N 36°30' E 000°02'1515.2
2014-Sep-02 11:33N 36°27' W 000°17'  
Track history (hours):
 
Tides and Currents Weather Stations Pressure Air Temp Water Temp Dewpoint Dewpoint Depression Visibility Wind Speed Wind Dir Waves Ship Positions

Maran Pythia

Last reported at 2014-Sep-12 11:09 UTC. Time now 2014-Sep-17 19:38 UTC.
Position N 41°26' E 029°14'.

Length 274 m; draft 9.3 m.

Type: Tanker. MMSI: 240893000.

Date/timePositionNaut miles runAvg speedWind from/ knotsBaromVisibWave heightAir tempDewpointWater temp
2014-Sep-12 11:09N 41°26' E 029°14'5 8.3
2014-Sep-12 10:33N 41°21' E 029°13'29 8.6
2014-Sep-12 07:08N 40°54' E 028°57'4 6.4
2014-Sep-12 06:32N 40°51' E 028°56'2 2.0
2014-Sep-12 05:33N 40°50' E 028°53'9 9.4
2014-Sep-12 04:33N 40°49' E 028°41'9 8.2
2014-Sep-12 03:29N 40°47' E 028°30'125 8.4
2014-Sep-11 12:32N 39°57' E 025°59'9 2.2
2014-Sep-11 08:19N 39°49' E 025°55'0 0.0
2014-Sep-11 07:19N 39°49' E 025°55'0 0.1
2014-Sep-11 06:22N 39°49' E 025°55'0 0.0
2014-Sep-11 05:31N 39°49' E 025°55'0 0.0
2014-Sep-11 04:31N 39°49' E 025°55'0 0.0
2014-Sep-11 03:22N 39°49' E 025°55'0 0.0
2014-Sep-11 02:31N 39°49' E 025°55'0 0.1
2014-Sep-11 01:25N 39°49' E 025°55'0 0.0
2014-Sep-11 00:31N 39°49' E 025°55'0 0.0
2014-Sep-10 23:28N 39°49' E 025°55'0 0.0
2014-Sep-10 21:31N 39°49' E 025°55'0 0.0
2014-Sep-10 17:22N 39°49' E 025°55'0 0.0
2014-Sep-10 13:28N 39°49' E 025°55'11 1.8
2014-Sep-10 07:07N 39°40' E 025°45'5 8.8
2014-Sep-10 06:31N 39°35' E 025°43'20 8.8
2014-Sep-10 04:18N 39°18' E 025°30'9 9.1
2014-Sep-10 03:16N 39°10' E 025°24'6 9.1
2014-Sep-10 02:34N 39°04' E 025°21'9 9.0
2014-Sep-10 01:33N 38°56' E 025°15'74 8.8
2014-Sep-09 17:14N 37°51' E 024°30'7 9.7
2014-Sep-09 16:31N 37°48' E 024°23'18 9.0
2014-Sep-09 14:34N 37°35' E 024°07'2210.5
2014-Sep-09 12:30N 37°42' E 023°41'1011.1
2014-Sep-09 11:33N 37°51' E 023°34'3 2.7
2014-Sep-09 10:33N 37°53' E 023°32'0 0.1
2014-Sep-09 09:33N 37°53' E 023°31'0 0.1
2014-Sep-09 08:33N 37°53' E 023°31'0 0.0
2014-Sep-09 07:33N 37°53' E 023°31'0 0.0
2014-Sep-09 06:33N 37°53' E 023°31'0 0.0
2014-Sep-09 05:33N 37°53' E 023°31'0 0.0
2014-Sep-09 04:33N 37°53' E 023°31'0 0.0
2014-Sep-09 03:33N 37°53' E 023°31'0 0.0
2014-Sep-09 02:33N 37°53' E 023°31'0 0.0
2014-Sep-09 01:33N 37°53' E 023°31'0 0.0
2014-Sep-09 00:33N 37°53' E 023°31'0 0.0
2014-Sep-08 23:33N 37°53' E 023°31'0 0.0
2014-Sep-08 22:33N 37°53' E 023°31'0 0.0
2014-Sep-08 21:33N 37°53' E 023°31'0 0.0
2014-Sep-08 20:33N 37°53' E 023°31'0 0.1
2014-Sep-08 19:33N 37°53' E 023°31'0 0.1
2014-Sep-08 18:33N 37°53' E 023°31'0 0.1
2014-Sep-08 17:33N 37°53' E 023°31'0 0.0
2014-Sep-08 16:33N 37°53' E 023°31'0 0.0
2014-Sep-08 15:33N 37°53' E 023°31'0 0.0
2014-Sep-08 14:33N 37°53' E 023°31'0 0.2
2014-Sep-08 13:33N 37°53' E 023°31'0 0.1
2014-Sep-08 12:33N 37°53' E 023°32'0 0.1
2014-Sep-08 11:33N 37°53' E 023°31'0 0.1
2014-Sep-08 10:33N 37°53' E 023°32'0 0.1
2014-Sep-08 09:33N 37°53' E 023°32'0 0.2
2014-Sep-08 08:33N 37°53' E 023°31'0 0.1
2014-Sep-08 07:33N 37°53' E 023°31'0 0.0
2014-Sep-08 06:33N 37°53' E 023°32'0 0.0
2014-Sep-08 05:33N 37°53' E 023°31'0 0.0
2014-Sep-08 04:33N 37°53' E 023°31'1 1.4
2014-Sep-08 03:34N 37°52' E 023°33'6 5.8
2014-Sep-08 02:33N 37°50' E 023°40'9 8.8
2014-Sep-08 01:33N 37°42' E 023°45'9 8.5
2014-Sep-08 00:33N 37°33' E 023°46'47 9.1
2014-Sep-07 19:19N 36°46' E 023°42'16 9.0
2014-Sep-07 17:33N 36°30' E 023°41'  
2014-Sep-05 13:17N 36°19' E 015°07'710.1
2014-Sep-05 12:34N 36°19' E 014°58'1010.1
2014-Sep-05 11:34N 36°21' E 014°46'1010.0
2014-Sep-05 10:34N 36°24' E 014°34'10 9.9
2014-Sep-05 09:34N 36°27' E 014°22'10 9.8
2014-Sep-05 08:34N 36°29' E 014°11'10 9.9
2014-Sep-05 07:34N 36°32' E 013°59'10 9.9
2014-Sep-05 06:34N 36°35' E 013°47'10 9.9
2014-Sep-05 05:33N 36°38' E 013°35'10 9.8
2014-Sep-05 04:34N 36°40' E 013°23'12 9.6
2014-Sep-05 03:18N 36°44' E 013°09'8 9.3
2014-Sep-05 02:28N 36°46' E 012°60'11 9.2
2014-Sep-05 01:18N 36°49' E 012°47'7 9.4
2014-Sep-05 00:33N 36°51' E 012°38'9 9.6
2014-Sep-04 23:33N 36°54' E 012°27'12 9.7
2014-Sep-04 22:18N 36°57' E 012°12'21 9.6
2014-Sep-04 20:08N 37°05' E 011°48'7 9.6
2014-Sep-04 19:27N 37°08' E 011°41'9 9.6
2014-Sep-04 18:30N 37°12' E 011°31'9 9.5
2014-Sep-04 17:33N 37°17' E 011°21'11 9.5
2014-Sep-04 16:23N 37°22' E 011°09'8 9.4
2014-Sep-04 15:34N 37°26' E 010°60'9 9.4
2014-Sep-04 14:34N 37°28' E 010°48'10 9.6
2014-Sep-04 13:34N 37°30' E 010°37'1110.1
2014-Sep-04 12:26N 37°33' E 010°23'910.1
2014-Sep-04 11:33N 37°34' E 010°12'1010.2
2014-Sep-04 10:33N 37°34' E 009°59'10 9.9
2014-Sep-04 09:33N 37°34' E 009°46'1111.3
2014-Sep-04 08:32N 37°35' E 009°32'1311.9
2014-Sep-04 07:26N 37°36' E 009°15'1111.9
2014-Sep-04 06:29N 37°36' E 009°01'1111.8
2014-Sep-04 05:34N 37°37' E 008°47'1211.6
2014-Sep-04 04:32N 37°36' E 008°32'1111.3
2014-Sep-04 03:33N 37°35' E 008°19'1111.3
2014-Sep-04 02:33N 37°34' E 008°04'1211.7
2014-Sep-04 01:33N 37°33' E 007°50'9711.5
2014-Sep-03 17:07N 37°20' E 005°48'7 8.9
2014-Sep-03 16:22N 37°20' E 005°40'3010.6
2014-Sep-03 13:32N 37°16' E 005°02'1110.9
2014-Sep-03 12:29N 37°15' E 004°48'5110.2
2014-Sep-03 07:28N 37°07' E 003°45'8 8.4
2014-Sep-03 06:33N 37°06' E 003°35'9 8.5
2014-Sep-03 05:33N 37°04' E 003°25'26 8.4
2014-Sep-03 02:24N 36°59' E 002°52'8 9.5
2014-Sep-03 01:32N 36°57' E 002°42'10 9.7
2014-Sep-03 00:31N 36°55' E 002°30'9 9.4
2014-Sep-02 23:33N 36°53' E 002°19'9 9.4
2014-Sep-02 22:33N 36°51' E 002°07'10 9.4
2014-Sep-02 21:32N 36°49' E 001°56'10 9.7
2014-Sep-02 20:33N 36°47' E 001°44'10 9.8
2014-Sep-02 19:33N 36°45' E 001°32'10 9.8
2014-Sep-02 18:33N 36°43' E 001°20'10 9.8
2014-Sep-02 17:33N 36°41' E 001°08'10 9.5
2014-Sep-02 16:33N 36°39' E 000°57'10 9.6
2014-Sep-02 15:33N 36°37' E 000°45'10 9.8
2014-Sep-02 14:33N 36°35' E 000°33'1110.7
2014-Sep-02 13:33N 36°33' E 000°20'1515.1
2014-Sep-02 12:33N 36°30' E 000°02'1515.2
2014-Sep-02 11:33N 36°27' W 000°17'  

Dump ship's entire track history